Aérodrome :
LOGIN :

S'inscrire | Disclaimer

   EN    FR    IT 

 










Légende :    VFR   VFR Marginal   IFR   IFR Intensif   IFR Très Intensif
Visi : 
Plafond : 
>= 8 km
>= 3000ft
5 à 8 km
1000 à 3000 ft
1500m à 5 km
500 à 1000 ft
800 à 1500m
200 à 500 ft
< 800m
< 200 ft
Symboles :   Orages  Brouillard  Fortes neiges  Fortes précipitations  Vent > 20 kt
SIGMETs :   Divers  Orages  Givrage  Turbulence  Onde Orograph.  Cendres Volcan.







- Altitude de l'aérodrome : 1674 ft
- Code IATA : BRN


LSZB - Bern Belp

DERNIER METAR :
  • 192120Z AUTO 32003KT 9999 OVC025 00/M02 Q1003

METARs EXPIRÉS :
  • 192050Z AUTO 28003KT 9999 OVC026 00/M02 Q1003
  • 192020Z AUTO VRB03KT 9999 BKN027 00/M02 Q1003
  • 191950Z AUTO VRB02KT 9999 BKN029 00/M02 Q1003
  • 191920Z AUTO VRB03KT 9999 BKN030 00/M02 Q1003
  • 191850Z 01003KT 320V050 9999 FEW018 OVC032 00/M02 Q1003 NOSIG

TAF TAF LSZB
Valide du 19 à 15h jusqu'au 20 à 00h UTC


191425Z 1915/1924 VRB03KT 6000 SCT020 BKN030
TEMPO 1915/1918 04007KT 4000 -SN
PROB40 1921/1924 BKN014
ATIS : +41 22 417 40 76
Pas de NOTAMs connus pour ce terrain.



MET'MAP, la Météo Aéronautique d'un coup d'oeil ! - Copyright ORBIFLY Décembre 2007 - Disclaimer

ORBIFLY MET'MAP TEAM :

Programmation & Développement : Alexandra Zaïnal
Conception & Développement : Baudouin d'Aumeries
Co-Programmation & Développement : Marc-Olivier Méhu
Soutien technique & logistique : Manuel Goepfert

Contact : metmap@orbifly.com




SOURCES & CREDITS :

   NOAA